createdAt,value
2018-03-17T00:00:26.078Z,9.30
2018-03-17T00:02:53.920Z,7.77
2018-03-17T00:05:21.486Z,7.00
2018-03-17T00:07:49.052Z,5.60
2018-03-17T00:10:16.654Z,4.77
2018-03-17T00:12:44.204Z,4.37
2018-03-17T00:15:11.758Z,5.37
2018-03-17T00:17:39.450Z,7.17
2018-03-17T00:20:07.017Z,4.37
2018-03-17T00:22:34.575Z,3.83
2018-03-17T00:25:02.176Z,4.37
2018-03-17T00:27:29.900Z,4.20
2018-03-17T00:29:57.451Z,5.10
2018-03-17T00:32:25.039Z,4.33
2018-03-17T00:34:52.671Z,5.13
2018-03-17T00:37:20.236Z,4.40
2018-03-17T00:39:47.834Z,4.53
2018-03-17T00:42:15.413Z,6.00
2018-03-17T00:44:42.965Z,5.27
2018-03-17T00:47:10.539Z,3.93
2018-03-17T00:49:38.101Z,4.10
2018-03-17T00:52:06.095Z,4.40
2018-03-17T00:54:33.768Z,6.70
2018-03-17T00:57:01.415Z,4.53
2018-03-17T00:59:29.002Z,4.87
2018-03-17T01:01:56.599Z,4.67
2018-03-17T01:04:24.222Z,4.97
2018-03-17T01:06:51.933Z,5.80
2018-03-17T01:09:19.547Z,5.60
2018-03-17T01:11:47.119Z,6.00
2018-03-17T01:14:14.872Z,6.83
2018-03-17T01:16:42.500Z,6.50
2018-03-17T01:19:10.057Z,5.53
2018-03-17T01:21:37.832Z,6.73
2018-03-17T01:24:05.498Z,8.87
2018-03-17T01:26:33.054Z,6.80
2018-03-17T01:29:00.647Z,8.90
2018-03-17T01:31:28.250Z,6.67
2018-03-17T01:33:55.825Z,5.40
2018-03-17T01:36:23.396Z,5.63
2018-03-17T01:38:50.985Z,5.80
2018-03-17T01:41:18.516Z,5.47
2018-03-17T01:43:46.071Z,4.43
2018-03-17T01:46:13.671Z,6.60
2018-03-17T01:48:41.240Z,5.50
2018-03-17T01:51:08.850Z,6.23
2018-03-17T01:53:36.484Z,6.97
2018-03-17T01:56:04.075Z,8.17
2018-03-17T01:58:31.683Z,4.90
2018-03-17T02:00:59.302Z,6.23
2018-03-17T02:03:26.872Z,6.70
2018-03-17T02:05:54.551Z,6.40
2018-03-17T02:08:22.132Z,4.80
2018-03-17T02:10:49.713Z,8.37
2018-03-17T02:13:17.267Z,5.30
2018-03-17T02:15:44.881Z,5.60
2018-03-17T02:18:12.532Z,7.20
2018-03-17T02:20:40.098Z,7.13
2018-03-17T02:23:07.858Z,5.10
2018-03-17T02:25:35.426Z,7.23
2018-03-17T02:28:03.203Z,5.70
2018-03-17T02:30:30.809Z,5.30
2018-03-17T02:32:58.376Z,6.70
2018-03-17T02:35:25.951Z,6.83
2018-03-17T02:37:53.636Z,6.30
2018-03-17T02:40:21.222Z,13.90
2018-03-17T02:42:48.962Z,6.30
2018-03-17T02:45:16.629Z,6.47
2018-03-17T02:47:44.280Z,5.77
2018-03-17T02:50:11.952Z,7.00
2018-03-17T02:52:39.566Z,5.70
2018-03-17T02:55:07.128Z,6.10
2018-03-17T02:57:34.739Z,6.90
2018-03-17T03:00:02.389Z,5.53
2018-03-17T03:02:29.946Z,5.47
2018-03-17T03:04:57.504Z,8.00
2018-03-17T03:07:25.108Z,7.40
2018-03-17T03:09:52.668Z,7.30
2018-03-17T03:12:20.292Z,6.53
2018-03-17T03:14:47.904Z,6.70
2018-03-17T03:17:16.022Z,5.93
2018-03-17T03:19:43.681Z,5.80
2018-03-17T03:22:11.275Z,5.80
2018-03-17T03:24:39.202Z,6.97
2018-03-17T03:27:06.767Z,6.27
2018-03-17T03:29:34.545Z,6.53
2018-03-17T03:32:02.222Z,7.97
2018-03-17T03:34:29.799Z,7.40
2018-03-17T03:36:57.412Z,6.57
2018-03-17T03:39:24.999Z,6.77
2018-03-17T03:41:52.572Z,7.10
2018-03-17T03:44:20.186Z,8.33
2018-03-17T03:46:47.976Z,7.43
2018-03-17T03:49:15.549Z,7.90
2018-03-17T03:51:43.311Z,9.40
2018-03-17T03:54:10.881Z,8.30
2018-03-17T03:56:38.570Z,9.93
2018-03-17T03:59:06.172Z,8.00
2018-03-17T04:01:33.958Z,9.63
2018-03-17T04:04:01.520Z,8.53
2018-03-17T04:06:29.270Z,6.20
2018-03-17T04:08:56.945Z,6.37
2018-03-17T04:11:24.544Z,9.30
2018-03-17T04:13:52.272Z,9.00
2018-03-17T04:16:19.841Z,8.47
2018-03-17T04:18:47.592Z,7.77
2018-03-17T04:21:15.241Z,8.13
2018-03-17T04:23:42.803Z,8.70
2018-03-17T04:26:10.418Z,10.37
2018-03-17T04:28:38.055Z,8.53
2018-03-17T04:31:05.627Z,8.00
2018-03-17T04:33:33.188Z,7.23
2018-03-17T04:36:00.940Z,9.07
2018-03-17T04:38:28.672Z,7.40
2018-03-17T04:40:56.340Z,7.30
2018-03-17T04:43:23.994Z,7.67
2018-03-17T04:45:51.551Z,8.50
2018-03-17T04:48:19.133Z,9.10
2018-03-17T04:50:46.720Z,7.50
2018-03-17T04:53:14.456Z,7.10
2018-03-17T04:55:42.026Z,7.93
2018-03-17T04:58:09.606Z,9.50
2018-03-17T05:00:37.159Z,8.50
2018-03-17T05:03:04.702Z,10.73
2018-03-17T05:05:32.294Z,10.00
2018-03-17T05:07:59.864Z,9.23
2018-03-17T05:10:27.471Z,7.70
2018-03-17T05:12:55.067Z,8.87
2018-03-17T05:15:22.628Z,8.87
2018-03-17T05:17:50.268Z,8.37
2018-03-17T05:20:17.880Z,8.30
2018-03-17T05:22:45.589Z,8.23
2018-03-17T05:25:13.251Z,7.00
2018-03-17T05:27:40.893Z,6.53
2018-03-17T05:30:08.573Z,6.83
2018-03-17T05:32:36.161Z,10.00
2018-03-17T05:35:03.877Z,6.50
2018-03-17T05:37:31.484Z,7.93
2018-03-17T05:39:59.211Z,7.53
2018-03-17T05:42:26.873Z,9.47
2018-03-17T05:44:54.480Z,8.93
2018-03-17T05:47:22.194Z,11.60
2018-03-17T05:49:49.875Z,10.20
2018-03-17T05:52:17.508Z,9.27
2018-03-17T05:54:45.139Z,9.27
2018-03-17T05:57:12.744Z,9.70
2018-03-17T05:59:40.328Z,10.13
2018-03-17T06:02:07.964Z,10.17
2018-03-17T06:04:35.589Z,10.37
2018-03-17T06:07:03.167Z,10.30
2018-03-17T06:09:30.735Z,11.47
2018-03-17T06:11:58.365Z,13.50
2018-03-17T06:14:25.965Z,11.20
2018-03-17T06:16:53.732Z,10.77
2018-03-17T06:19:21.342Z,10.87
2018-03-17T06:21:48.917Z,10.10
2018-03-17T06:24:16.528Z,5.70
2018-03-17T06:26:44.284Z,7.00
2018-03-17T06:29:11.853Z,5.90
2018-03-17T06:31:39.417Z,7.33
2018-03-17T06:34:07.033Z,6.60
2018-03-17T06:36:34.945Z,5.40
2018-03-17T06:39:02.524Z,8.43
2018-03-17T06:41:30.248Z,5.67
2018-03-17T06:43:57.835Z,6.07
2018-03-17T06:46:25.407Z,7.93
2018-03-17T06:48:53.254Z,10.10
2018-03-17T06:51:20.822Z,6.83
2018-03-17T06:53:48.751Z,8.07
2018-03-17T06:56:16.360Z,8.83
2018-03-17T06:58:43.928Z,9.70
2018-03-17T07:01:11.507Z,13.40
2018-03-17T07:03:39.127Z,15.10
2018-03-17T07:06:06.684Z,22.00
2018-03-17T07:08:34.253Z,52.00
2018-03-17T07:11:01.995Z,49.77
2018-03-17T07:13:29.661Z,34.10
2018-03-17T07:15:57.330Z,37.10
2018-03-17T07:18:24.969Z,38.43
2018-03-17T07:20:52.724Z,33.30
2018-03-17T07:23:20.297Z,34.83
2018-03-17T07:25:47.904Z,31.90
2018-03-17T07:28:15.484Z,29.50
2018-03-17T07:30:43.068Z,31.13
2018-03-17T07:33:10.687Z,23.30
2018-03-17T07:35:38.262Z,18.30
2018-03-17T07:38:05.862Z,17.63
2018-03-17T07:40:33.542Z,15.27
2018-03-17T07:43:01.114Z,17.70
2018-03-17T07:45:28.685Z,14.60
2018-03-17T07:47:56.301Z,16.30
2018-03-17T07:50:23.859Z,14.67
2018-03-17T07:52:51.461Z,13.50
2018-03-17T07:55:19.102Z,12.00
2018-03-17T07:57:46.776Z,13.33
2018-03-17T08:00:14.385Z,9.10
2018-03-17T08:02:42.002Z,7.97
2018-03-17T08:05:09.567Z,6.83
2018-03-17T08:07:37.218Z,6.90
2018-03-17T08:10:04.820Z,7.37
2018-03-17T08:12:32.405Z,7.47
2018-03-17T08:14:59.975Z,6.90
2018-03-17T08:17:27.584Z,7.20
2018-03-17T08:19:55.166Z,8.47
2018-03-17T08:22:22.858Z,7.87
2018-03-17T08:24:50.484Z,17.33
2018-03-17T08:27:18.072Z,9.70
2018-03-17T08:29:45.653Z,7.83
2018-03-17T08:32:13.298Z,7.00
2018-03-17T08:34:40.872Z,7.97
2018-03-17T08:37:08.457Z,8.10
2018-03-17T08:39:36.086Z,6.40
2018-03-17T08:42:03.656Z,6.67
2018-03-17T08:44:31.967Z,6.20
2018-03-17T08:46:59.649Z,8.20
2018-03-17T08:49:27.223Z,7.00
2018-03-17T08:51:54.800Z,8.07
2018-03-17T08:54:22.430Z,7.40
2018-03-17T08:56:50.240Z,7.23
2018-03-17T08:59:17.859Z,5.70
2018-03-17T09:01:45.443Z,5.30
2018-03-17T09:04:13.014Z,5.87
2018-03-17T09:06:40.611Z,6.07
2018-03-17T09:09:08.212Z,6.50
2018-03-17T09:11:35.802Z,5.07
2018-03-17T09:14:03.434Z,5.80
2018-03-17T09:16:31.001Z,3.70
2018-03-17T09:18:58.590Z,5.57
2018-03-17T09:21:26.253Z,3.77
2018-03-17T09:23:53.829Z,3.50
2018-03-17T09:26:21.580Z,3.90
2018-03-17T09:28:49.201Z,3.20
2018-03-17T09:31:16.868Z,3.00
2018-03-17T09:33:44.574Z,2.93
2018-03-17T09:36:12.178Z,3.00
2018-03-17T09:38:39.794Z,3.60
2018-03-17T09:41:07.373Z,3.30
2018-03-17T09:43:34.996Z,2.53
2018-03-17T09:46:02.599Z,3.97
2018-03-17T09:48:30.168Z,3.10
2018-03-17T09:50:57.784Z,2.80
2018-03-17T09:53:25.370Z,3.57
2018-03-17T09:55:52.928Z,3.87
2018-03-17T09:58:20.571Z,3.63
2018-03-17T10:00:49.029Z,3.77
2018-03-17T10:03:16.612Z,3.60
2018-03-17T10:05:44.213Z,2.80
2018-03-17T10:08:11.793Z,2.87
2018-03-17T10:10:39.377Z,4.83
2018-03-17T10:13:06.980Z,3.60
2018-03-17T10:15:34.543Z,2.90
2018-03-17T10:18:02.283Z,4.03
2018-03-17T10:20:29.888Z,3.53
2018-03-17T10:22:57.622Z,3.57
2018-03-17T10:25:25.268Z,3.60
2018-03-17T10:27:52.920Z,3.80
2018-03-17T10:30:20.485Z,4.00
2018-03-17T10:32:48.273Z,3.20
2018-03-17T10:35:15.882Z,3.73
2018-03-17T10:37:43.440Z,4.37
2018-03-17T10:40:11.067Z,3.57
2018-03-17T10:42:38.701Z,4.37
2018-03-17T10:45:06.307Z,4.70
2018-03-17T10:47:33.875Z,4.90
2018-03-17T10:50:01.475Z,3.57
2018-03-17T10:52:29.081Z,4.20
2018-03-17T10:54:56.819Z,3.63
2018-03-17T10:57:24.440Z,4.97
2018-03-17T10:59:52.062Z,5.70
2018-03-17T11:02:21.551Z,3.03
2018-03-17T11:04:49.308Z,3.03
2018-03-17T11:07:16.878Z,3.17
2018-03-17T11:09:44.474Z,4.10
2018-03-17T11:12:12.096Z,5.97
2018-03-17T11:14:39.800Z,4.53
2018-03-17T11:17:07.396Z,5.00
2018-03-17T11:19:35.077Z,4.30
2018-03-17T11:22:02.723Z,3.53
2018-03-17T11:24:30.282Z,4.83
2018-03-17T11:26:57.916Z,3.73
2018-03-17T11:29:25.510Z,3.47
2018-03-17T11:31:53.165Z,4.50
2018-03-17T11:34:20.829Z,4.53
2018-03-17T11:36:48.574Z,4.00
2018-03-17T11:39:16.539Z,4.67
2018-03-17T11:41:44.167Z,3.80
2018-03-17T11:44:11.898Z,2.87
2018-03-17T11:46:39.547Z,3.50
2018-03-17T11:49:07.145Z,3.87
2018-03-17T11:51:34.704Z,3.93
2018-03-17T11:54:02.262Z,3.33
2018-03-17T11:56:29.858Z,3.73
2018-03-17T11:58:57.455Z,3.20
2018-03-17T12:01:25.023Z,2.90
2018-03-17T12:03:52.632Z,3.43
2018-03-17T12:06:20.236Z,5.10
2018-03-17T12:08:47.918Z,3.33
2018-03-17T12:11:15.510Z,3.80
2018-03-17T12:13:43.229Z,4.93
2018-03-17T12:16:10.798Z,3.73
2018-03-17T12:18:38.395Z,5.40
2018-03-17T12:21:05.952Z,5.33
2018-03-17T12:23:33.899Z,4.13
2018-03-17T12:26:01.551Z,3.93
2018-03-17T12:28:29.133Z,5.23
2018-03-17T12:30:56.707Z,4.47
2018-03-17T12:33:24.522Z,4.80
2018-03-17T12:35:52.095Z,3.17
2018-03-17T12:38:19.878Z,4.30
2018-03-17T12:40:47.482Z,3.73
2018-03-17T12:43:15.180Z,4.90
2018-03-17T12:45:42.832Z,4.13
2018-03-17T12:48:10.429Z,6.33
2018-03-17T12:50:38.006Z,3.40
2018-03-17T12:53:05.586Z,4.60
2018-03-17T12:55:33.195Z,5.20
2018-03-17T12:58:00.760Z,4.33
2018-03-17T13:00:28.332Z,5.33
2018-03-17T13:02:55.922Z,4.27
2018-03-17T13:05:23.483Z,6.07
2018-03-17T13:07:51.041Z,3.50
2018-03-17T13:10:18.650Z,4.73
2018-03-17T13:12:46.233Z,3.50
2018-03-17T13:15:13.819Z,5.00
2018-03-17T13:17:41.456Z,8.83
2018-03-17T13:20:09.032Z,5.57
2018-03-17T13:22:48.460Z,6.40
2018-03-17T13:25:16.099Z,6.00
2018-03-17T13:27:55.389Z,6.40
2018-03-17T13:30:22.959Z,3.43
2018-03-17T13:32:56.532Z,5.00
2018-03-17T13:38:22.925Z,5.47
2018-03-17T13:40:50.723Z,5.57
2018-03-17T13:43:18.454Z,4.73
2018-03-17T13:45:46.065Z,5.43
2018-03-17T13:48:13.621Z,5.90
2018-03-17T13:50:41.225Z,7.17
2018-03-17T13:53:08.829Z,5.30
2018-03-17T13:55:36.399Z,8.20
2018-03-17T13:58:03.971Z,4.37
2018-03-17T14:00:31.586Z,6.30
2018-03-17T14:02:59.162Z,3.00
2018-03-17T14:05:26.742Z,4.53
2018-03-17T14:07:54.488Z,4.30
2018-03-17T14:10:22.058Z,4.70
2018-03-17T14:12:49.628Z,4.93
2018-03-17T14:15:17.246Z,3.93
2018-03-17T14:17:44.817Z,5.80
2018-03-17T14:20:12.389Z,5.90
2018-03-17T14:22:39.983Z,5.03
2018-03-17T14:25:07.815Z,5.03
2018-03-17T14:27:35.381Z,6.60
2018-03-17T14:30:02.997Z,6.00
2018-03-17T14:32:30.577Z,6.87
2018-03-17T14:34:58.157Z,7.47
2018-03-17T14:37:25.731Z,5.20
2018-03-17T14:39:53.293Z,6.93
2018-03-17T14:42:20.866Z,8.07
2018-03-17T14:44:48.470Z,4.53
2018-03-17T14:47:16.052Z,4.17
2018-03-17T14:49:43.615Z,3.60
2018-03-17T14:52:11.210Z,3.73
2018-03-17T14:54:38.763Z,3.57
2018-03-17T14:57:06.306Z,3.60
2018-03-17T14:59:33.896Z,5.63
2018-03-17T15:02:01.528Z,5.70
2018-03-17T15:04:29.104Z,5.27
2018-03-17T15:06:56.853Z,5.03
2018-03-17T15:09:24.480Z,4.30
2018-03-17T15:11:52.072Z,6.80
2018-03-17T15:14:19.677Z,9.50
2018-03-17T15:16:47.236Z,6.23
2018-03-17T15:19:14.800Z,6.93
2018-03-17T15:21:42.413Z,5.10
2018-03-17T15:24:09.987Z,6.23
2018-03-17T15:26:37.555Z,5.73
2018-03-17T15:29:05.176Z,6.83
2018-03-17T15:31:32.741Z,5.40
2018-03-17T15:34:00.322Z,4.83
2018-03-17T15:36:27.930Z,4.47
2018-03-17T15:38:55.490Z,5.40
2018-03-17T15:41:23.049Z,7.87
2018-03-17T15:43:50.636Z,3.10
2018-03-17T15:46:18.198Z,2.93
2018-03-17T15:48:45.971Z,4.00
2018-03-17T15:51:13.644Z,3.37
2018-03-17T15:53:41.404Z,4.80
2018-03-17T15:56:08.971Z,3.20
2018-03-17T15:58:36.576Z,2.93
2018-03-17T16:01:04.145Z,4.03
2018-03-17T16:03:31.710Z,3.90
2018-03-17T16:06:00.396Z,8.03
2018-03-17T16:08:28.172Z,3.30
2018-03-17T16:10:55.865Z,8.07
2018-03-17T16:13:23.465Z,3.90
2018-03-17T16:15:51.007Z,5.97
2018-03-17T16:18:18.569Z,3.80
2018-03-17T16:20:46.179Z,4.27
2018-03-17T16:23:13.928Z,5.90
2018-03-17T16:25:41.542Z,4.83
2018-03-17T16:28:09.140Z,5.57
2018-03-17T16:30:36.743Z,3.50
2018-03-17T16:33:04.312Z,6.00
2018-03-17T16:35:31.954Z,58.97
2018-03-17T16:37:59.515Z,6.37
2018-03-17T16:40:27.118Z,5.40
2018-03-17T16:42:54.742Z,9.53
2018-03-17T16:45:22.361Z,9.67
2018-03-17T16:47:50.383Z,7.00
2018-03-17T16:50:17.983Z,4.93
2018-03-17T16:52:45.553Z,7.83
2018-03-17T16:55:13.132Z,4.90
2018-03-17T16:57:40.737Z,3.83
2018-03-17T17:00:08.306Z,2.33
2018-03-17T17:02:35.931Z,3.60
2018-03-17T17:05:03.569Z,4.13
2018-03-17T17:07:31.134Z,4.77
2018-03-17T17:09:58.731Z,4.43
2018-03-17T17:12:26.338Z,3.27
2018-03-17T17:14:53.927Z,5.43
2018-03-17T17:17:21.528Z,5.57
2018-03-17T17:19:49.136Z,4.20
2018-03-17T17:22:16.706Z,4.57
2018-03-17T17:24:44.272Z,3.53
2018-03-17T17:27:11.868Z,7.20
2018-03-17T17:29:39.430Z,4.20
2018-03-17T17:32:07.010Z,3.83
2018-03-17T17:34:34.628Z,5.77
2018-03-17T17:37:02.211Z,3.57
2018-03-17T17:39:29.788Z,3.37
2018-03-17T17:41:57.410Z,3.90
2018-03-17T17:44:24.974Z,4.40
2018-03-17T17:46:52.537Z,6.30
2018-03-17T17:49:20.158Z,6.00
2018-03-17T17:51:47.766Z,4.50
2018-03-17T17:54:15.330Z,3.73
2018-03-17T17:56:42.925Z,5.10
2018-03-17T17:59:10.532Z,4.40
2018-03-17T18:01:38.106Z,9.33
2018-03-17T18:04:05.718Z,5.27
2018-03-17T18:06:33.288Z,5.50
2018-03-17T18:09:00.855Z,13.07
2018-03-17T18:11:28.481Z,6.40
2018-03-17T18:13:56.047Z,5.10
2018-03-17T18:16:23.614Z,5.50
2018-03-17T18:18:51.223Z,5.80
2018-03-17T18:21:18.784Z,5.57
2018-03-17T18:23:46.350Z,5.00
2018-03-17T18:26:13.966Z,4.73
2018-03-17T18:28:41.534Z,5.10
2018-03-17T18:31:09.099Z,3.00
2018-03-17T18:33:36.686Z,5.43
2018-03-17T18:36:04.248Z,4.90
2018-03-17T18:38:31.820Z,4.70
2018-03-17T18:40:59.433Z,5.90
2018-03-17T18:43:27.016Z,4.13
2018-03-17T18:45:54.584Z,5.30
2018-03-17T18:48:28.736Z,5.70
2018-03-17T18:50:56.359Z,5.10
2018-03-17T18:53:23.907Z,5.23
2018-03-17T18:55:51.493Z,4.17
2018-03-17T18:58:19.148Z,4.30
2018-03-17T19:00:46.706Z,3.87
2018-03-17T19:03:14.335Z,2.83
2018-03-17T19:05:41.942Z,4.80
2018-03-17T19:08:09.521Z,3.17
2018-03-17T19:10:37.108Z,2.93
2018-03-17T19:13:04.673Z,4.27
2018-03-17T19:15:32.233Z,4.57
2018-03-17T19:17:59.830Z,4.60
2018-03-17T19:20:27.390Z,3.80
2018-03-17T19:22:54.972Z,4.20
2018-03-17T19:25:22.579Z,5.13
2018-03-17T19:27:50.240Z,4.20
2018-03-17T19:30:17.857Z,6.80
2018-03-17T19:32:45.448Z,4.27
2018-03-17T19:35:13.021Z,4.63
2018-03-17T19:37:40.588Z,4.13
2018-03-17T19:40:08.361Z,2.80
2018-03-17T19:42:35.923Z,3.77
2018-03-17T19:45:03.484Z,3.70
2018-03-17T19:47:31.068Z,5.50
2018-03-17T19:49:58.633Z,4.77
2018-03-17T19:52:26.280Z,3.73
2018-03-17T19:54:53.869Z,4.90
2018-03-17T19:57:21.466Z,5.10
2018-03-17T19:59:49.051Z,3.73
2018-03-17T20:02:16.668Z,3.80
2018-03-17T20:04:44.220Z,5.43
2018-03-17T20:07:11.774Z,4.30
2018-03-17T20:09:39.359Z,5.40
2018-03-17T20:12:07.743Z,5.83
2018-03-17T20:14:35.309Z,4.63
2018-03-17T20:17:03.113Z,3.70
2018-03-17T20:19:30.711Z,5.23
2018-03-17T20:21:58.317Z,6.00
2018-03-17T20:24:26.064Z,5.40
2018-03-17T20:26:53.733Z,4.47
2018-03-17T20:29:21.300Z,3.10
2018-03-17T20:31:48.894Z,4.30
2018-03-17T20:34:16.452Z,5.23
2018-03-17T20:36:44.009Z,4.70
2018-03-17T20:39:11.636Z,6.80
2018-03-17T20:41:39.224Z,5.83
2018-03-17T20:44:06.793Z,3.53
2018-03-17T20:46:34.424Z,4.13
2018-03-17T20:49:02.079Z,4.13
2018-03-17T20:51:29.659Z,3.60
2018-03-17T20:53:57.273Z,4.57
2018-03-17T20:56:24.924Z,5.20
2018-03-17T20:58:52.592Z,4.43
2018-03-17T21:01:20.215Z,5.50
2018-03-17T21:03:47.769Z,3.80
2018-03-17T21:06:15.350Z,4.00
2018-03-17T21:08:42.964Z,4.80
2018-03-17T21:11:10.535Z,6.20
2018-03-17T21:13:38.117Z,6.80
2018-03-17T21:16:05.757Z,6.50
2018-03-17T21:18:33.338Z,5.00
2018-03-17T21:21:01.107Z,5.43
2018-03-17T21:23:28.711Z,3.70
2018-03-17T21:25:56.304Z,6.60
2018-03-17T21:28:23.873Z,4.50
2018-03-17T21:30:51.751Z,3.90
2018-03-17T21:33:19.407Z,3.50
2018-03-17T21:35:47.059Z,7.03
2018-03-17T21:38:14.658Z,3.97
2018-03-17T21:40:42.230Z,4.57
2018-03-17T21:43:09.844Z,3.67
2018-03-17T21:45:37.488Z,4.10
2018-03-17T21:48:05.076Z,4.07
2018-03-17T21:50:32.829Z,4.50
2018-03-17T21:53:00.433Z,3.83
2018-03-17T21:55:28.034Z,4.10
2018-03-17T21:57:55.794Z,3.40
2018-03-17T22:00:23.502Z,5.80
2018-03-17T22:02:51.134Z,5.07
2018-03-17T22:05:18.678Z,3.60
2018-03-17T22:07:46.486Z,5.93
2018-03-17T22:10:14.048Z,5.20
2018-03-17T22:12:41.638Z,4.80
2018-03-17T22:15:09.255Z,5.30
2018-03-17T22:17:36.817Z,4.53
2018-03-17T22:20:04.436Z,4.27
2018-03-17T22:22:32.128Z,4.47
2018-03-17T22:24:59.695Z,4.50
2018-03-17T22:27:27.256Z,4.67
2018-03-17T22:29:54.864Z,6.30
2018-03-17T22:32:22.426Z,5.77
2018-03-17T22:34:50.121Z,3.53
2018-03-17T22:37:17.724Z,4.50
2018-03-17T22:39:45.452Z,4.50
2018-03-17T22:42:13.012Z,6.40
2018-03-17T22:44:40.783Z,6.77
2018-03-17T22:47:08.340Z,4.60
2018-03-17T22:49:36.121Z,5.90
2018-03-17T22:52:03.720Z,7.17
2018-03-17T22:54:31.426Z,5.33
2018-03-17T22:56:59.107Z,5.73
2018-03-17T22:59:26.716Z,4.93
2018-03-17T23:01:54.413Z,5.40
2018-03-17T23:04:22.084Z,5.60
2018-03-17T23:06:49.679Z,6.47
2018-03-17T23:09:17.248Z,6.80
2018-03-17T23:11:44.813Z,5.30
2018-03-17T23:14:12.527Z,3.97
2018-03-17T23:16:40.112Z,6.17
2018-03-17T23:19:07.721Z,4.53
2018-03-17T23:21:35.338Z,4.40
2018-03-17T23:24:02.967Z,3.93
2018-03-17T23:26:30.645Z,5.00
2018-03-17T23:28:58.285Z,4.87
2018-03-17T23:31:25.864Z,4.50
2018-03-17T23:33:53.629Z,4.07
2018-03-17T23:36:21.274Z,3.70
2018-03-17T23:38:48.955Z,4.57
2018-03-17T23:41:16.554Z,4.47
2018-03-17T23:43:44.189Z,5.43
2018-03-17T23:46:11.796Z,3.63
2018-03-17T23:48:39.410Z,3.70
2018-03-17T23:51:07.057Z,4.10
2018-03-17T23:53:34.662Z,5.83
2018-03-17T23:56:02.278Z,5.60
2018-03-17T23:58:30.051Z,5.77
